WetterOnline ( http://www.wetteronline.de )

Wetter aktuell Bad Bramstedt

Aktuelles Wetter: Dörnick (28m)

6-stündlich | Neueste Meldungen
Ortszeit Temperatur Wetter
Mi, 26.09. 8:00 9.6° C bedeckt
Mi, 26.09. 2:00 9.7° C bedeckt
Di, 25.09. 20:00 9.8° C wolkig
Di, 25.09. 14:00 13.2° C leicht bewölkt
Di, 25.09. 8:00 4.6° C wolkenlos
Di, 25.09. 2:00 5.2° C wolkenlos
Mo, 24.09. 20:00 8.4° C wolkenlos
Mo, 24.09. 14:00 9.9° C wolkig
Ortszeit Temperatur Wetter
Mi, 26.09. 12:30 13.8° C -
Mi, 26.09. 12:20 13.8° C -
Mi, 26.09. 12:10 13.8° C -
Mi, 26.09. 12:00 13.3° C bedeckt
Mi, 26.09. 11:50 13.3° C bedeckt
Mi, 26.09. 11:40 13.1° C bedeckt
Mi, 26.09. 11:30 13.1° C bewölkt
Mi, 26.09. 11:00 12.7° C bewölkt
Mi, 26.09. 10:30 12.2° C wolkig
Mi, 26.09. 10:00 11.1° C bewölkt
Mi, 26.09. 9:30 10.4° C wolkig
Ortszeit Relative Feuchte Sichtweite
Mi, 26.09. 8:00 73% 21 km
Mi, 26.09. 2:00 80% 40 km
Di, 25.09. 20:00 81% 70 km
Di, 25.09. 14:00 54% 45 km
Di, 25.09. 8:00 88% 45 km
Di, 25.09. 2:00 86% 45 km
Mo, 24.09. 20:00 68% 60 km
Mo, 24.09. 14:00 73% 17 km
Ortszeit Relative Feuchte Sichtweite
Mi, 26.09. 12:30 62% 3.5 km
Mi, 26.09. 12:20 62% -
Mi, 26.09. 12:10 61% -
Mi, 26.09. 12:00 63% 8 km
Mi, 26.09. 11:50 63% -
Mi, 26.09. 11:40 62% -
Mi, 26.09. 11:30 61% 4.9 km
Mi, 26.09. 11:00 62% 4.7 km
Mi, 26.09. 10:30 64% 10 km
Mi, 26.09. 10:00 68% 16 km
Mi, 26.09. 9:30 69% 19 km
Ortszeit Niederschlagsmenge Niederschlagsart
Mi, 26.09. 8:00 0.0 l/m2 in 12 Std. -
Mi, 26.09. 2:00 0.0 l/m2 in 6 Std. -
Di, 25.09. 20:00 0.0 l/m2 in 12 Std. -
Di, 25.09. 14:00 0.0 l/m2 in 6 Std. -
Di, 25.09. 8:00 0.0 l/m2 in 12 Std. -
Di, 25.09. 2:00 0.0 l/m2 in 6 Std. -
Mo, 24.09. 20:00 0.6 l/m2 in 12 Std. Regen
Mo, 24.09. 14:00 0.1 l/m2 in 6 Std. Regen
Ortszeit Niederschlagsmenge Niederschlagsart
Mi, 26.09. 12:30 0.0 l/m2 in 1 Std. -
Mi, 26.09. 12:20 keine Meldung -
Mi, 26.09. 12:10 keine Meldung -
Mi, 26.09. 12:00 0.0 l/m2 in 1 Std. -
Mi, 26.09. 11:50 keine Meldung -
Mi, 26.09. 11:40 keine Meldung -
Mi, 26.09. 11:30 0.0 l/m2 in 1 Std. -
Mi, 26.09. 11:00 0.0 l/m2 in 1 Std. -
Mi, 26.09. 10:30 0.0 l/m2 in 1 Std. -
Mi, 26.09. 10:00 0.0 l/m2 in 1 Std. -
Mi, 26.09. 9:30 0.0 l/m2 in 1 Std. -
Ortszeit Stärke Spitze Richtung
km/h Bft. km/h Grad Sektor
Mi, 26.09. 8:00 22 4 39 210° SW
Mi, 26.09. 2:00 14 3 29 220° SW
Di, 25.09. 20:00 6 1 26 240° SW
Di, 25.09. 14:00 9 2 20 270° W
Di, 25.09. 8:00 6 1 17 300° NW
Di, 25.09. 2:00 9 2 28 280° W
Mo, 24.09. 20:00 18 3 58 290° W
Mo, 24.09. 14:00 25 4 47 270° W
Ortszeit Stärke Spitze Richtung
km/h Bft. km/h Grad Sektor
Mi, 26.09. 12:30 31 5 57 230° SW
Mi, 26.09. 12:20 31 5 - 230° SW
Mi, 26.09. 12:10 37 5 - 230° SW
Mi, 26.09. 12:00 37 5 57 230° SW
Mi, 26.09. 11:50 37 5 - 230° SW
Mi, 26.09. 11:40 36 5 - 230° SW
Mi, 26.09. 11:30 35 5 56 230° SW
Mi, 26.09. 11:00 33 5 52 220° SW
Mi, 26.09. 10:30 28 4 43 230° SW
Mi, 26.09. 10:00 22 4 43 220° SW
Mi, 26.09. 9:30 22 4 32 220° SW
Ortszeit Untergrenze Bedeckung Gattung
total tief tief mittel hoch
Mi, 26.09. 8:00 5100 m 8/8 8/8 - - -
Mi, 26.09. 2:00 6000 m 8/8 8/8 - - -
Di, 25.09. 20:00 1800 m 8/8 1/8 - - -
Di, 25.09. 14:00 1230 m 4/8 4/8 - - -
Di, 25.09. 8:00 - 0/8 0/8 - - -
Di, 25.09. 2:00 - 0/8 0/8 - - -
Mo, 24.09. 20:00 - 0/8 0/8 - - -
Mo, 24.09. 14:00 1050 m 7/8 2/8 - - -
Ortszeit Bedeckungsgrad in Achtel und Wolkenuntergrenze
Mi, 26.09. 12:30 -
Mi, 26.09. 12:20 -
Mi, 26.09. 12:10 -
Mi, 26.09. 12:00 3(1260m) 6(1500m) 8(1800m)
Mi, 26.09. 11:50 3(1260m) 6(1500m) 8(1800m)
Mi, 26.09. 11:40 7(1500m) 8(1800m)
Mi, 26.09. 11:30 6(1500m) 7(2100m)
Mi, 26.09. 11:00 4(1500m) 8(5400m) 8(6000m)
Mi, 26.09. 10:30 3(1800m) 8(5400m) 8(6000m)
Mi, 26.09. 10:00 4(1500m) 8(5400m) 8(7800m)
Mi, 26.09. 9:30 2(1800m) 8(5100m) 8(7200m)
Ortszeit Luftdruck NN (hPa) Tendenz (hPa in 3 Std.)
Mi, 26.09. 8:00 1029 - 2,8
Mi, 26.09. 2:00 1034 - 1,6
Di, 25.09. 20:00 1036 - 0,7
Di, 25.09. 14:00 1038 + 0,4
Di, 25.09. 8:00 1036 + 1,5
Di, 25.09. 2:00 1033 + 1,6
Mo, 24.09. 20:00 1029 + 1,6
Mo, 24.09. 14:00 1026 + 1,9
Ortszeit Luftdruck NN (hPa) Tendenz (hPa in 3 Std.)
Mi, 26.09. 12:30 1027 - 1,8
Mi, 26.09. 12:20 1027 keine Meldung
Mi, 26.09. 12:10 1027 keine Meldung
Mi, 26.09. 12:00 1028 - 1,7
Mi, 26.09. 11:50 1028 keine Meldung
Mi, 26.09. 11:40 1028 keine Meldung
Mi, 26.09. 11:30 1028 - 1,5
Mi, 26.09. 11:00 1028 - 1,0
Mi, 26.09. 10:30 1029 - 1,1
Mi, 26.09. 10:00 1029 - 1,0
Mi, 26.09. 9:30 1029 - 1,7
Ortszeit Schneehöhe (cm)
Mi, 26.09. 8:00 -
Mi, 26.09. 2:00 -
Di, 25.09. 20:00 -
Di, 25.09. 14:00 -
Di, 25.09. 8:00 -
Di, 25.09. 2:00 -
Mo, 24.09. 20:00 -
Mo, 24.09. 14:00 -
Ortszeit Schneehöhe (cm)
Mi, 26.09. 12:30 -
Mi, 26.09. 12:20 -
Mi, 26.09. 12:10 -
Mi, 26.09. 12:00 -
Mi, 26.09. 11:50 -
Mi, 26.09. 11:40 -
Mi, 26.09. 11:30 -
Mi, 26.09. 11:00 -
Mi, 26.09. 10:30 -
Mi, 26.09. 10:00 -
Mi, 26.09. 9:30 -
Link zu dieser Seite / Seite empfehlen

Das Wetter in ...